Time;durP1;ratioP1;P1;durP2;ratioP2;P2;SDS_P1;SDS_P2;PMS_P1;PMS_P2;Temp;Humidity;BMP_temperature;BMP_pressure;BME280_temperature;BME280_humidity;BME280_pressure;Samples;Min_cycle;Max_cycle;Signal;HPM_P1;HPM_P2
2023/02/09 00:02:08;;;;;;;21.55;11.50;;;;;;;-2.24;56.28;98161.59;4995330;28;20065;-75
2023/02/09 00:04:35;;;;;;;18.35;10.82;;;;;;;-2.34;56.31;98166.28;4995266;28;20097;-75
2023/02/09 00:07:03;;;;;;;17.83;9.63;;;;;;;-2.36;56.50;98160.38;4995221;28;20055;-75
2023/02/09 00:09:31;;;;;;;16.90;9.07;;;;;;;-2.39;56.37;98160.50;4994400;28;20393;-75
2023/02/09 00:14:45;;;;;;;18.33;9.57;;;;;;;-2.44;56.48;98161.59;4995180;28;20493;-77
2023/02/09 00:17:13;;;;;;;17.13;9.43;;;;;;;-2.43;56.70;98163.25;4995125;28;20247;-75
2023/02/09 00:19:40;;;;;;;17.63;9.23;;;;;;;-2.41;56.64;98162.28;4994666;28;20129;-76
2023/02/09 00:22:08;;;;;;;16.40;9.35;;;;;;;-2.45;56.33;98149.69;4996422;28;20089;-75
2023/02/09 00:24:36;;;;;;;16.05;9.98;;;;;;;-2.49;56.46;98149.84;4998087;28;20054;-75
2023/02/09 00:27:03;;;;;;;18.05;10.00;;;;;;;-2.48;56.97;98150.66;4996722;28;20133;-78
2023/02/09 00:29:31;;;;;;;15.55;9.05;;;;;;;-2.48;57.63;98150.66;4994579;28;20640;-77
2023/02/09 00:32:00;;;;;;;14.15;8.70;;;;;;;-2.47;58.34;98147.22;4995264;28;20054;-76
2023/02/09 00:34:28;;;;;;;15.15;8.82;;;;;;;-2.47;57.64;98141.25;5000235;28;20109;-74
2023/02/09 00:36:55;;;;;;;15.70;8.82;;;;;;;-2.50;56.81;98132.81;5016166;28;20056;-75
2023/02/09 00:39:23;;;;;;;16.13;8.60;;;;;;;-2.59;56.86;98128.09;5012551;28;20497;-75
2023/02/09 00:42:06;;;;;;;15.50;8.27;;;;;;;-2.66;56.93;98126.69;4996791;28;20081;-75
2023/02/09 00:44:34;;;;;;;14.82;8.68;;;;;;;-2.72;56.86;98125.19;4995738;28;20046;-75
2023/02/09 00:47:04;;;;;;;19.33;8.38;;;;;;;-2.74;56.94;98131.28;4995002;28;20050;-77
2023/02/09 00:49:32;;;;;;;15.07;8.63;;;;;;;-2.82;56.72;98131.59;4993962;28;20142;-75
2023/02/09 00:52:00;;;;;;;17.77;9.30;;;;;;;-2.89;57.04;98130.16;4994588;28;20485;-75
2023/02/09 00:54:27;;;;;;;19.75;10.70;;;;;;;-2.96;57.14;98133.84;4994668;28;20060;-78
2023/02/09 00:56:55;;;;;;;24.15;11.85;;;;;;;-2.99;57.34;98137.34;4994419;28;20057;-83
2023/02/09 00:59:22;;;;;;;15.73;9.48;;;;;;;-2.99;57.29;98139.91;4993124;28;20050;-80
2023/02/09 01:01:50;;;;;;;20.63;10.40;;;;;;;-3.01;57.56;98136.59;4993770;28;20046;-78
2023/02/09 01:04:18;;;;;;;16.55;8.63;;;;;;;-2.98;59.16;98140.72;4993438;28;20054;-82
2023/02/09 01:06:46;;;;;;;16.25;9.07;;;;;;;-2.87;59.13;98128.38;4993542;28;20050;-78
2023/02/09 01:09:14;;;;;;;13.68;8.20;;;;;;;-2.76;60.40;98126.22;4992585;28;20050;-79
2023/02/09 01:11:41;;;;;;;14.90;8.65;;;;;;;-2.64;61.99;98118.97;4992720;28;20050;-77
2023/02/09 01:14:10;;;;;;;15.00;9.15;;;;;;;-2.56;62.08;98117.78;4993719;28;20056;-81
2023/02/09 01:16:38;;;;;;;19.20;8.88;;;;;;;-2.50;62.45;98117.50;4993668;28;20054;-77
2023/02/09 01:19:06;;;;;;;13.77;8.70;;;;;;;-2.47;61.91;98113.16;5046299;22;20041;-86
2023/02/09 01:21:35;;;;;;;15.00;8.60;;;;;;;-2.44;63.53;98111.31;5060466;28;20045;-87
2023/02/09 01:24:03;;;;;;;13.93;7.97;;;;;;;-2.40;62.25;98117.97;5060483;28;20053;-87
2023/02/09 01:26:30;;;;;;;14.50;8.50;;;;;;;-2.44;60.70;98103.66;5061461;28;20109;-87
2023/02/09 01:28:58;;;;;;;13.43;7.65;;;;;;;-2.52;60.55;98093.72;5060037;28;20053;-84
2023/02/09 01:31:28;;;;;;;15.43;8.65;;;;;;;-2.56;59.76;98096.47;5061248;28;20053;-87
2023/02/09 01:33:58;;;;;;;13.07;8.25;;;;;;;-2.57;61.89;98090.53;5060156;28;20049;-83
2023/02/09 01:36:25;;;;;;;12.82;8.20;;;;;;;-2.52;61.55;98090.34;5059569;28;20088;-85
2023/02/09 01:38:56;;;;;;;15.43;7.72;;;;;;;-2.53;61.52;98083.59;5045290;28;20053;-84
2023/02/09 01:41:23;;;;;;;14.98;8.05;;;;;;;-2.55;63.23;98086.22;5039120;28;20045;-86
2023/02/09 01:43:54;;;;;;;13.23;7.95;;;;;;;-2.52;62.29;98085.25;5039190;28;20045;-86
2023/02/09 01:46:24;;;;;;;12.68;7.10;;;;;;;-2.55;62.68;98078.53;5039808;28;20088;-84
2023/02/09 01:48:58;;;;;;;13.40;7.85;;;;;;;-2.56;61.84;98086.25;5038357;28;20458;-84
2023/02/09 01:51:27;;;;;;;12.20;7.60;;;;;;;-2.62;61.83;98079.69;5039139;28;20049;-85
2023/02/09 01:53:57;;;;;;;9.77;6.53;;;;;;;-2.66;60.70;98079.91;5039129;28;20141;-84
2023/02/09 01:56:29;;;;;;;12.02;7.57;;;;;;;-2.71;59.74;98083.47;5039479;28;20049;-84
2023/02/09 01:58:58;;;;;;;11.77;7.13;;;;;;;-2.72;60.32;98078.41;5039124;28;20053;-85
2023/02/09 02:01:26;;;;;;;13.15;7.55;;;;;;;-2.75;59.68;98070.88;5039166;28;20088;-82
2023/02/09 02:03:54;;;;;;;12.30;7.68;;;;;;;-2.76;60.17;98069.22;5039110;28;20060;-84
2023/02/09 02:06:22;;;;;;;12.27;6.95;;;;;;;-2.77;61.20;98073.50;5039711;28;20045;-85
2023/02/09 02:08:56;;;;;;;12.07;7.45;;;;;;;-2.71;62.10;98069.88;5038465;28;20049;-87
2023/02/09 02:11:27;;;;;;;11.50;6.55;;;;;;;-2.64;61.68;98063.59;5038612;28;20515;-85
2023/02/09 02:13:56;;;;;;;13.60;7.50;;;;;;;-2.62;61.78;98061.81;5039086;28;20057;-84
2023/02/09 02:16:34;;;;;;;10.35;6.22;;;;;;;-2.64;60.50;98061.06;5039136;28;20133;-88
2023/02/09 02:19:35;;;;;;;11.45;6.55;;;;;;;-2.68;59.54;98061.25;5035280;28;20054;-86
2023/02/09 02:22:36;;;;;;;12.13;6.93;;;;;;;-2.64;61.52;98068.72;5036308;28;20162;-84
2023/02/09 02:25:38;;;;;;;13.48;6.32;;;;;;;-2.60;60.30;98072.81;5039779;28;20053;-84
2023/02/09 02:28:38;;;;;;;13.57;6.47;;;;;;;-2.54;60.99;98071.69;5040430;28;20060;-87
2023/02/09 02:31:52;;;;;;;13.13;7.43;;;;;;;-2.51;60.90;98074.16;5040355;28;20049;-85
2023/02/09 02:34:23;;;;;;;;;;;;;;;-2.42;63.78;98072.94;5023192;28;20518;-84
2023/02/09 02:37:01;;;;;;;10.75;6.10;;;;;;;-2.42;59.88;98072.94;5042192;28;19929;-83
2023/02/09 02:39:38;;;;;;;11.65;6.35;;;;;;;-2.49;60.97;98069.81;5041620;28;20555;-84
2023/02/09 02:45:09;;;;;;;12.02;7.85;;;;;;;-2.46;61.27;98050.94;5042463;28;20510;-83
2023/02/09 02:47:42;;;;;;;10.13;6.38;;;;;;;-2.52;61.77;98052.84;5041497;28;20067;-85
2023/02/09 02:50:13;;;;;;;11.98;6.45;;;;;;;-2.53;61.46;98052.94;5042067;28;20041;-85
2023/02/09 02:52:45;;;;;;;11.98;6.85;;;;;;;-2.54;61.47;98041.88;5041590;28;20049;-84
2023/02/09 02:55:16;;;;;;;10.50;5.45;;;;;;;-2.54;63.22;98044.41;5041852;28;20113;-85
2023/02/09 02:57:48;;;;;;;14.40;7.35;;;;;;;-2.54;62.77;98044.41;5041400;28;20513;-87
2023/02/09 03:00:19;;;;;;;11.35;6.45;;;;;;;-2.58;61.18;98047.16;5041238;28;20062;-83
2023/02/09 03:02:52;;;;;;;12.68;6.32;;;;;;;-2.60;60.96;98041.28;5043352;28;20144;-86
2023/02/09 03:05:22;;;;;;;14.27;7.57;;;;;;;-2.56;64.14;98046.25;5041999;28;20150;-89
2023/02/09 03:07:51;;;;;;;11.18;6.45;;;;;;;-2.52;63.21;98047.75;5040605;28;20049;-86
2023/02/09 03:10:28;;;;;;;12.38;6.63;;;;;;;-2.54;65.67;98049.53;5040768;28;20132;-88
2023/02/09 03:13:06;;;;;;;10.63;7.03;;;;;;;-2.55;63.35;98047.88;5040849;28;20056;-89
2023/02/09 03:15:44;;;;;;;10.55;6.35;;;;;;;-2.54;63.43;98052.09;5040653;28;20050;-86
2023/02/09 03:18:22;;;;;;;11.45;6.07;;;;;;;-2.58;63.00;98055.69;5039462;28;20099;-87
2023/02/09 03:20:53;;;;;;;10.98;6.53;;;;;;;-2.64;62.75;98048.28;5040331;28;20495;-84
2023/02/09 03:23:31;;;;;;;9.27;6.18;;;;;;;-2.65;64.38;98071.31;5040082;28;20056;-88
2023/02/09 03:26:03;;;;;;;10.23;5.65;;;;;;;-2.61;61.89;98067.75;5041818;28;20128;-86
2023/02/09 03:28:35;;;;;;;11.00;7.07;;;;;;;-2.64;60.45;98071.25;5040437;28;20053;-87
2023/02/09 03:31:04;;;;;;;13.52;6.65;;;;;;;-2.68;60.24;98074.00;5041072;28;20430;-89
2023/02/09 03:33:36;;;;;;;10.80;6.22;;;;;;;-2.70;60.03;98079.19;5040039;28;20061;-86
2023/02/09 03:36:09;;;;;;;13.43;7.72;;;;;;;-2.75;59.59;98081.91;5040923;28;20064;-85
2023/02/09 03:38:36;;;;;;;10.00;6.05;;;;;;;-2.78;59.69;98091.41;5040437;28;20045;-86
2023/02/09 03:41:04;;;;;;;12.95;5.95;;;;;;;-2.83;59.32;98093.34;5040706;28;20057;-86
2023/02/09 03:46:19;;;;;;;10.73;6.20;;;;;;;-2.98;59.04;98085.38;5039602;28;20053;-86
2023/02/09 03:48:49;;;;;;;11.15;6.45;;;;;;;-3.06;59.72;98084.88;5038577;28;20053;-85
2023/02/09 03:51:17;;;;;;;13.00;7.28;;;;;;;-3.08;62.13;98094.31;5039038;28;20049;-86
2023/02/09 03:53:46;;;;;;;10.98;6.32;;;;;;;-3.03;62.43;98087.31;5038918;28;20059;-86
2023/02/09 03:56:13;;;;;;;12.18;6.88;;;;;;;-2.99;61.68;98091.41;5039365;28;20049;-90
2023/02/09 03:58:41;;;;;;;12.13;6.38;;;;;;;-2.99;61.02;98093.97;5038742;28;20049;-87
2023/02/09 04:01:10;;;;;;;12.82;5.97;;;;;;;-3.00;60.38;98087.16;5039030;28;20590;-85
2023/02/09 04:03:39;;;;;;;11.23;6.47;;;;;;;-3.05;60.07;98083.16;5039211;28;20049;-85
2023/02/09 04:06:09;;;;;;;10.75;5.90;;;;;;;-3.13;59.71;98091.09;5038665;28;20046;-86
2023/02/09 04:08:37;;;;;;;11.60;6.95;;;;;;;-3.19;59.66;98086.22;5038532;28;20073;-83
2023/02/09 04:11:05;;;;;;;12.10;6.32;;;;;;;-3.25;59.85;98083.94;5039051;28;20050;-87
2023/02/09 04:13:32;;;;;;;10.63;6.32;;;;;;;-3.27;60.28;98083.16;5039335;28;20077;-87
2023/02/09 04:16:00;;;;;;;13.85;7.97;;;;;;;-3.32;59.90;98084.16;5038428;28;20045;-87
2023/02/09 04:18:28;;;;;;;11.93;6.65;;;;;;;-3.40;59.76;98093.84;5037776;28;20084;-84
2023/02/09 04:20:55;;;;;;;12.13;6.57;;;;;;;-3.55;59.48;98096.97;5039623;28;20049;-85
2023/02/09 04:23:24;;;;;;;15.82;8.52;;;;;;;-3.68;59.60;98093.22;5039924;28;20483;-83
2023/02/09 04:25:52;;;;;;;15.18;8.02;;;;;;;-3.80;59.70;98085.13;5040305;28;20065;-83
2023/02/09 04:28:20;;;;;;;21.73;11.07;;;;;;;-3.81;61.99;98078.34;5039149;28;20487;-85
2023/02/09 04:30:51;;;;;;;22.35;9.98;;;;;;;-3.69;63.82;98076.25;5040032;28;20053;-84
2023/02/09 04:33:19;;;;;;;19.70;9.70;;;;;;;-3.53;65.45;98077.31;5039877;28;20061;-85
2023/02/09 04:35:47;;;;;;;16.63;8.82;;;;;;;-3.36;65.75;98079.25;5039651;28;20077;-87
2023/02/09 04:38:15;;;;;;;15.30;8.68;;;;;;;-3.23;66.00;98084.72;5039091;28;20087;-84
2023/02/09 04:40:44;;;;;;;18.58;9.32;;;;;;;-3.18;64.65;98077.69;5038432;28;20053;-87
2023/02/09 04:43:12;;;;;;;14.95;8.65;;;;;;;-3.32;61.67;98080.78;5037965;28;20057;-83
2023/02/09 04:45:41;;;;;;;18.15;10.35;;;;;;;-3.56;61.07;98083.38;5038656;28;20124;-86
2023/02/09 04:48:12;;;;;;;15.73;7.78;;;;;;;-3.71;62.09;98088.22;5037932;28;20064;-83
2023/02/09 04:50:40;;;;;;;13.82;8.27;;;;;;;-3.76;62.17;98083.28;5039112;28;20057;-84
2023/02/09 04:53:07;;;;;;;15.93;7.43;;;;;;;-3.76;63.16;98078.19;5039598;28;20056;-86
2023/02/09 04:55:37;;;;;;;18.08;7.32;;;;;;;-3.75;62.54;98083.22;5039504;28;20059;-84
2023/02/09 05:00:54;;;;;;;10.57;7.10;;;;;;;-3.79;61.52;98079.13;5038664;28;20059;-83
2023/02/09 05:03:22;;;;;;;13.38;7.25;;;;;;;-3.80;61.43;98080.03;5038795;28;20045;-83
2023/02/09 05:05:54;;;;;;;11.02;6.68;;;;;;;-3.85;61.21;98076.78;5039655;28;20080;-83
2023/02/09 05:08:22;;;;;;;12.25;6.75;;;;;;;-3.89;61.29;98080.38;5038663;28;20128;-83
2023/02/09 05:10:50;;;;;;;15.68;7.70;;;;;;;-3.89;61.29;98074.41;5039454;28;20142;-83
2023/02/09 05:13:20;;;;;;;12.75;7.82;;;;;;;-4.05;61.15;98069.03;5039641;28;20045;-82
2023/02/09 05:15:48;;;;;;;12.35;7.65;;;;;;;-4.19;61.09;98072.09;5039709;28;20128;-83
2023/02/09 05:18:16;;;;;;;13.35;7.75;;;;;;;-4.28;61.36;98083.44;5038905;28;20053;-84
2023/02/09 05:20:44;;;;;;;17.35;8.25;;;;;;;-4.31;61.66;98077.59;5039949;28;20130;-81
2023/02/09 05:23:13;;;;;;;13.43;7.85;;;;;;;-4.35;61.77;98084.53;5038817;28;20049;-83
2023/02/09 05:25:40;;;;;;;14.93;8.38;;;;;;;-4.31;62.95;98083.53;5039076;28;20508;-86
2023/02/09 05:28:08;;;;;;;15.63;8.30;;;;;;;-4.17;63.27;98085.63;5039071;28;20499;-86
2023/02/09 05:30:37;;;;;;;13.65;7.75;;;;;;;-4.11;62.64;98072.66;5039364;28;20084;-83
2023/02/09 05:33:06;;;;;;;15.50;7.53;;;;;;;-4.09;62.39;98072.59;5042597;28;20051;-83
2023/02/09 05:35:34;;;;;;;14.25;9.32;;;;;;;-4.13;61.87;98071.88;5053046;28;20649;-83
2023/02/09 05:38:01;;;;;;;16.13;7.05;;;;;;;-4.20;62.07;98068.72;5043618;28;20045;-84
2023/02/09 05:40:29;;;;;;;15.17;8.17;;;;;;;-4.26;61.98;98070.66;5039097;28;20051;-84
2023/02/09 05:42:58;;;;;;;13.52;7.97;;;;;;;-4.27;62.41;98067.25;5049553;28;20128;-83
2023/02/09 05:45:26;;;;;;;14.63;8.07;;;;;;;-4.27;61.99;98064.72;5039574;28;20109;-87
2023/02/09 05:47:55;;;;;;;16.67;8.23;;;;;;;-4.33;61.89;98067.47;5039031;28;20128;-84
2023/02/09 05:50:22;;;;;;;13.05;7.50;;;;;;;-4.42;61.69;98066.06;5050915;28;20059;-83
2023/02/09 05:52:50;;;;;;;13.50;7.82;;;;;;;-4.42;62.38;98067.78;5057857;28;20155;-81
2023/02/09 05:55:18;;;;;;;14.55;7.72;;;;;;;-4.43;61.77;98061.88;5058417;28;20049;-85
2023/02/09 05:57:45;;;;;;;16.63;8.68;;;;;;;-4.46;62.53;98048.41;5044461;28;20095;-82
2023/02/09 06:00:14;;;;;;;14.07;8.00;;;;;;;-4.47;62.37;98050.13;5060577;28;20056;-81
2023/02/09 06:02:42;;;;;;;13.45;8.15;;;;;;;-4.54;62.19;98050.41;5059251;28;20087;-82
2023/02/09 06:05:11;;;;;;;16.92;9.02;;;;;;;-4.57;62.38;98053.84;5056810;28;20470;-82
2023/02/09 06:07:40;;;;;;;16.48;9.13;;;;;;;-4.54;63.11;98053.78;5057879;28;20064;-81
2023/02/09 06:10:09;;;;;;;25.47;11.03;;;;;;;-4.48;63.12;98060.34;5058815;28;20503;-83
2023/02/09 06:12:38;;;;;;;22.20;10.77;;;;;;;-4.40;64.92;98063.47;5050857;28;20077;-81
2023/02/09 06:15:09;;;;;;;17.83;10.32;;;;;;;-4.34;63.63;98058.16;5047308;28;20049;-81
2023/02/09 06:17:37;;;;;;;15.48;8.68;;;;;;;-4.32;63.17;98063.22;5044036;28;20140;-87
2023/02/09 06:20:05;;;;;;;16.73;8.98;;;;;;;-4.26;64.10;98071.47;5045965;28;20055;-88
2023/02/09 06:22:34;;;;;;;14.97;8.47;;;;;;;-4.17;64.30;98072.88;5060661;28;20051;-87
2023/02/09 06:25:02;;;;;;;17.85;10.13;;;;;;;-4.14;63.26;98083.78;5058608;28;20045;-81
2023/02/09 06:27:30;;;;;;;14.90;9.45;;;;;;;-4.10;63.73;98081.97;5055997;28;20049;-83
2023/02/09 06:29:57;;;;;;;17.38;8.43;;;;;;;-4.09;63.36;98082.78;5040645;28;20426;-82
2023/02/09 06:32:25;;;;;;;16.37;8.77;;;;;;;-4.09;62.92;98082.78;5053688;28;20072;-80
2023/02/09 06:34:52;;;;;;;13.20;7.93;;;;;;;-4.10;62.82;98091.31;5052289;28;20045;-78
2023/02/09 06:37:20;;;;;;;16.88;9.35;;;;;;;-4.14;63.01;98091.41;5044468;28;20051;-77
2023/02/09 06:39:49;;;;;;;14.57;8.75;;;;;;;-4.17;62.91;98098.34;5036696;28;20056;-78
2023/02/09 06:42:16;;;;;;;16.83;8.55;;;;;;;-4.21;62.94;98100.16;5053233;28;20067;-78
2023/02/09 06:44:44;;;;;;;17.30;8.68;;;;;;;-4.25;62.93;98103.69;5046299;28;20140;-79
2023/02/09 06:47:11;;;;;;;14.67;9.40;;;;;;;-4.32;62.74;98109.91;5041730;28;20054;-79
2023/02/09 06:49:39;;;;;;;15.85;8.55;;;;;;;-4.47;62.17;98112.97;5034771;28;20049;-78
2023/02/09 06:52:07;;;;;;;13.27;9.07;;;;;;;-4.64;62.61;98105.88;5052700;28;20057;-78
2023/02/09 06:54:34;;;;;;;15.70;9.07;;;;;;;-4.70;63.31;98104.38;5051606;28;20053;-78
2023/02/09 06:57:03;;;;;;;15.30;9.77;;;;;;;-4.63;65.19;98105.84;5046964;28;20059;-80
2023/02/09 06:59:31;;;;;;;15.30;9.53;;;;;;;-4.56;64.82;98109.00;5049164;28;20393;-82
2023/02/09 07:01:58;;;;;;;18.33;9.63;;;;;;;-4.53;64.80;98118.25;5045296;28;20047;-77
2023/02/09 07:04:26;;;;;;;15.88;9.15;;;;;;;-4.53;64.41;98119.09;5053738;28;20045;-81
2023/02/09 07:06:54;;;;;;;13.35;9.30;;;;;;;-4.56;63.90;98117.47;5054582;28;20059;-78
2023/02/09 07:09:21;;;;;;;16.27;9.52;;;;;;;-4.54;64.28;98117.44;5052413;28;20052;-77
2023/02/09 07:11:49;;;;;;;16.30;10.00;;;;;;;-4.49;63.90;98119.81;5054558;28;20076;-79
2023/02/09 07:14:18;;;;;;;22.15;10.60;;;;;;;-4.57;63.68;98118.38;5054658;28;20044;-81
2023/02/09 07:16:45;;;;;;;19.90;9.45;;;;;;;-4.61;63.68;98126.16;5054466;28;20053;-79
2023/02/09 07:19:13;;;;;;;15.17;8.50;;;;;;;-4.64;63.80;98132.16;5054446;22;20416;-77
2023/02/09 07:21:40;;;;;;;16.50;8.52;;;;;;;-4.66;63.88;98133.94;4998491;28;20050;-80
2023/02/09 07:24:08;;;;;;;16.98;9.73;;;;;;;-4.65;63.36;98130.53;4998672;28;20054;-77
2023/02/09 07:26:35;;;;;;;15.48;9.43;;;;;;;-4.60;64.26;98133.72;4998441;28;20051;-79
2023/02/09 07:29:03;;;;;;;16.97;9.67;;;;;;;-4.53;64.08;98138.63;4997403;28;20136;-78
2023/02/09 07:31:32;;;;;;;16.02;9.52;;;;;;;-4.47;63.58;98134.16;4997210;28;20420;-78
2023/02/09 07:34:00;;;;;;;15.52;9.07;;;;;;;-4.39;63.67;98132.22;4996982;28;20182;-78
2023/02/09 07:36:28;;;;;;;14.00;9.52;;;;;;;-4.31;63.72;98129.38;4996794;28;20138;-80
2023/02/09 07:38:56;;;;;;;15.90;10.20;;;;;;;-4.12;64.77;98137.25;4996102;28;20050;-80
2023/02/09 07:41:24;;;;;;;16.92;9.73;;;;;;;-3.82;64.07;98131.97;4995236;28;20054;-78
2023/02/09 07:43:53;;;;;;;19.42;10.32;;;;;;;-3.38;63.95;98137.97;4995099;28;20145;-78
2023/02/09 07:46:22;;;;;;;14.68;9.07;;;;;;;-3.02;61.94;98134.91;4995023;28;20061;-80
2023/02/09 07:48:51;;;;;;;15.45;9.70;;;;;;;-2.99;60.73;98136.53;4994151;28;20116;-80
2023/02/09 07:51:24;;;;;;;16.42;10.02;;;;;;;-3.18;61.19;98136.41;4994849;28;20137;-78
2023/02/09 07:53:52;;;;;;;20.58;10.32;;;;;;;-3.36;61.71;98136.22;4994792;28;20046;-77
2023/02/09 07:56:19;;;;;;;15.75;9.07;;;;;;;-3.46;61.62;98134.88;4994824;28;20046;-79
2023/02/09 07:58:47;;;;;;;13.82;10.35;;;;;;;-3.59;62.75;98138.78;4993957;28;20052;-80
2023/02/09 08:01:15;;;;;;;14.55;9.77;;;;;;;-3.61;62.69;98143.94;4994819;28;20050;-78
2023/02/09 08:03:44;;;;;;;16.17;9.85;;;;;;;-3.65;62.65;98141.53;4995046;28;20129;-78
2023/02/09 08:06:17;;;;;;;15.27;10.15;;;;;;;-3.66;62.57;98145.81;4995099;28;20448;-76
2023/02/09 08:08:47;;;;;;;15.95;9.68;;;;;;;-3.60;62.97;98148.16;4994541;28;20069;-78
2023/02/09 08:11:17;;;;;;;14.98;10.02;;;;;;;-3.49;63.71;98150.31;4995188;28;20159;-76
2023/02/09 08:13:45;;;;;;;14.73;9.85;;;;;;;-3.38;63.14;98148.19;4994943;28;20053;-76
2023/02/09 08:16:17;;;;;;;18.08;11.15;;;;;;;-3.31;62.78;98147.06;4994843;28;20090;-78
2023/02/09 08:18:50;;;;;;;17.13;11.30;;;;;;;-3.17;63.65;98150.81;4994246;28;20141;-76
2023/02/09 08:21:19;;;;;;;14.93;10.48;;;;;;;-3.06;62.73;98151.25;4994610;28;20046;-76
2023/02/09 08:23:51;;;;;;;17.80;11.00;;;;;;;-3.01;62.09;98149.34;4994370;28;20060;-80
2023/02/09 08:26:20;;;;;;;19.55;12.60;;;;;;;-2.94;62.07;98157.59;4994408;28;20108;-77
2023/02/09 08:28:47;;;;;;;21.83;12.80;;;;;;;-2.85;62.00;98157.22;4993385;28;20589;-78
2023/02/09 08:31:17;;;;;;;19.38;12.52;;;;;;;-2.73;62.30;98153.38;4993806;28;20566;-78
2023/02/09 08:33:47;;;;;;;18.65;11.48;;;;;;;-2.58;61.90;98155.31;4994073;28;20050;-78
2023/02/09 08:36:16;;;;;;;23.92;13.63;;;;;;;-2.44;62.25;98147.09;4993815;28;20497;-80
2023/02/09 08:38:46;;;;;;;21.55;12.57;;;;;;;-2.25;63.81;98149.72;4994308;28;20145;-85
2023/02/09 08:41:16;;;;;;;22.38;14.20;;;;;;;-2.03;63.14;98148.78;4994808;28;20057;-84
2023/02/09 08:43:47;;;;;;;19.42;12.73;;;;;;;-1.83;62.05;98141.13;4994447;28;20149;-78
2023/02/09 08:46:15;;;;;;;23.90;13.57;;;;;;;-1.66;61.86;98146.34;4994098;28;20047;-78
2023/02/09 08:48:45;;;;;;;21.83;13.98;;;;;;;-1.43;61.93;98141.09;4993050;28;20061;-78
2023/02/09 08:51:15;;;;;;;18.63;13.70;;;;;;;-1.24;61.70;98141.91;4993717;28;20064;-78
2023/02/09 08:53:45;;;;;;;23.35;14.48;;;;;;;-1.03;62.16;98137.50;4993994;28;20077;-78
2023/02/09 08:56:13;;;;;;;20.77;13.60;;;;;;;-0.77;62.39;98138.03;4994111;28;20254;-78
2023/02/09 08:58:42;;;;;;;25.90;14.35;;;;;;;-0.53;61.48;98134.28;4993129;28;20531;-77
2023/02/09 09:01:12;;;;;;;24.65;14.90;;;;;;;-0.29;60.84;98139.09;5007100;28;20054;-75
2023/02/09 09:03:40;;;;;;;26.20;14.93;;;;;;;-0.06;59.52;98143.09;5016775;28;20077;-74
2023/02/09 09:06:10;;;;;;;22.42;14.48;;;;;;;0.12;59.39;98131.88;5001980;28;20050;-76
2023/02/09 09:08:39;;;;;;;23.67;14.30;;;;;;;0.30;58.99;98136.97;4995138;28;20050;-78
2023/02/09 09:11:11;;;;;;;24.67;14.70;;;;;;;0.56;59.44;98140.75;4994277;28;20061;-78
2023/02/09 09:13:41;;;;;;;24.15;15.23;;;;;;;0.78;57.59;98137.84;4995462;28;20133;-76
2023/02/09 09:16:14;;;;;;;24.52;15.32;;;;;;;0.91;55.49;98136.28;4995283;28;20058;-76
2023/02/09 09:18:43;;;;;;;24.80;15.57;;;;;;;1.03;56.67;98133.03;4994893;28;20501;-76
2023/02/09 09:21:10;;;;;;;22.88;15.57;;;;;;;1.15;56.16;98128.13;4996369;28;20137;-78
2023/02/09 09:23:38;;;;;;;23.33;14.35;;;;;;;1.32;55.29;98140.06;4994453;28;20061;-78
2023/02/09 09:26:06;;;;;;;23.60;15.18;;;;;;;1.43;54.49;98137.69;4994462;28;20068;-78
2023/02/09 09:28:34;;;;;;;25.38;15.25;;;;;;;1.55;54.44;98139.59;4993080;28;20051;-78
2023/02/09 09:31:08;;;;;;;23.55;14.90;;;;;;;1.72;53.17;98137.78;4993763;28;20050;-78
2023/02/09 09:33:36;;;;;;;23.80;14.63;;;;;;;1.90;55.19;98141.03;4993307;28;20141;-78
2023/02/09 09:36:06;;;;;;;21.55;15.32;;;;;;;2.08;53.16;98139.09;4993405;28;20129;-78
2023/02/09 09:38:34;;;;;;;23.98;14.93;;;;;;;2.26;52.81;98145.75;5003546;28;20061;-78
2023/02/09 09:41:03;;;;;;;23.30;15.10;;;;;;;2.41;52.69;98151.75;5005976;28;20416;-79
2023/02/09 09:43:34;;;;;;;23.70;15.25;;;;;;;2.63;51.53;98148.69;5004114;28;20050;-78
2023/02/09 09:46:02;;;;;;;22.17;15.35;;;;;;;2.81;52.60;98154.44;5001413;28;20106;-78
2023/02/09 09:48:40;;;;;;;22.90;16.10;;;;;;;2.95;50.62;98151.00;4999817;28;20046;-78
2023/02/09 09:51:13;;;;;;;25.05;15.98;;;;;;;3.13;51.32;98155.03;4999592;28;20141;-78
2023/02/09 09:53:43;;;;;;;24.45;15.95;;;;;;;3.32;51.05;98156.44;4993809;28;20050;-78
2023/02/09 09:56:13;;;;;;;25.00;16.58;;;;;;;3.46;52.78;98157.19;4993056;28;20137;-78
2023/02/09 09:58:43;;;;;;;23.20;15.57;;;;;;;3.58;50.54;98150.41;4992292;28;20050;-78
2023/02/09 10:01:13;;;;;;;23.38;15.25;;;;;;;3.69;50.20;98147.94;4992933;28;20085;-78
2023/02/09 10:03:43;;;;;;;23.25;15.38;;;;;;;3.83;51.92;98147.06;4993367;28;20478;-78
2023/02/09 10:06:14;;;;;;;24.58;15.73;;;;;;;3.97;52.24;98153.06;4993206;28;20114;-78
2023/02/09 10:08:47;;;;;;;23.65;15.80;;;;;;;4.15;51.87;98162.16;4992354;28;20156;-78
2023/02/09 10:11:16;;;;;;;;;;;;;;;4.39;51.50;98156.28;4993675;28;20062;-75
2023/02/09 10:13:47;;;;;;;25.08;15.75;;;;;;;4.53;50.45;98148.41;4993471;28;19934;-76
2023/02/09 10:16:18;;;;;;;29.98;17.00;;;;;;;4.62;48.51;98147.78;4994138;28;20133;-76
2023/02/09 10:18:51;;;;;;;25.55;16.85;;;;;;;4.77;49.84;98156.22;4992661;28;20520;-76
2023/02/09 10:21:19;;;;;;;28.33;18.13;;;;;;;4.89;48.61;98147.59;4993281;28;20054;-75
2023/02/09 10:23:48;;;;;;;29.65;17.00;;;;;;;4.90;47.22;98146.66;4993261;28;20085;-76
2023/02/09 10:26:21;;;;;;;26.15;16.75;;;;;;;4.93;46.51;98156.78;4993400;28;20086;-77
2023/02/09 10:28:51;;;;;;;25.10;17.50;;;;;;;5.02;48.33;98155.31;4992585;28;20527;-76
2023/02/09 10:31:24;;;;;;;27.58;18.50;;;;;;;5.07;46.20;98150.66;4993378;28;20054;-76
2023/02/09 10:33:57;;;;;;;27.52;17.80;;;;;;;5.16;45.48;98149.19;4993608;28;20050;-76
2023/02/09 10:36:26;;;;;;;;;;;;;;;5.29;46.42;98151.69;4993407;28;20515;-77
2023/02/09 10:39:04;;;;;;;28.25;17.58;;;;;;;5.28;45.24;98145.69;4992225;28;20363;-76
2023/02/09 10:41:34;;;;;;;23.65;16.52;;;;;;;5.37;47.18;98150.19;4993012;28;20046;-76
2023/02/09 10:44:06;;;;;;;29.45;19.58;;;;;;;5.50;45.27;98149.31;4995176;28;20457;-75
2023/02/09 10:46:33;;;;;;;39.47;19.38;;;;;;;5.67;46.29;98150.69;4996297;28;20046;-76
2023/02/09 10:49:11;;;;;;;31.83;19.65;;;;;;;5.78;46.64;98148.94;4995215;28;20497;-77
2023/02/09 10:51:38;;;;;;;29.42;18.85;;;;;;;5.91;46.54;98140.28;4996241;28;20478;-77
2023/02/09 10:54:17;;;;;;;29.83;20.08;;;;;;;6.09;46.47;98131.16;4996465;28;20061;-76
2023/02/09 10:56:47;;;;;;;32.17;21.42;;;;;;;6.35;46.48;98130.94;4996270;28;20054;-77
2023/02/09 10:59:16;;;;;;;34.33;21.42;;;;;;;6.53;45.82;98129.50;4995131;28;20053;-77
2023/02/09 11:01:53;;;;;;;32.60;22.45;;;;;;;6.72;47.31;98133.28;4996036;28;20077;-77
2023/02/09 11:04:24;;;;;;;31.20;20.60;;;;;;;6.91;46.43;98133.50;4996001;28;20137;-76
2023/02/09 11:06:54;;;;;;;33.17;21.02;;;;;;;7.14;45.55;98128.25;4995914;28;20058;-76
2023/02/09 11:09:27;;;;;;;31.20;20.73;;;;;;;7.29;46.39;98132.22;4994940;28;20137;-77
2023/02/09 11:11:56;;;;;;;;;;;;;;;7.52;45.26;98126.91;4996040;28;20046;-77
2023/02/09 11:14:25;;;;;;;30.33;20.67;;;;;;;7.64;45.15;98129.34;4995470;28;20460;-77
2023/02/09 11:17:02;;;;;;;29.00;21.30;;;;;;;7.75;42.97;98123.28;4995743;28;20052;-77
2023/02/09 11:19:53;;;;;;;33.70;21.98;;;;;;;7.91;43.25;98127.19;4994761;28;20056;-76
2023/02/09 11:22:34;;;;;;;27.95;20.63;;;;;;;7.97;42.56;98124.91;4986641;28;20460;-76
2023/02/09 11:25:12;;;;;;;33.90;22.65;;;;;;;8.03;45.52;98124.41;4996207;28;20046;-77
2023/02/09 11:27:56;;;;;;;28.67;20.65;;;;;;;8.14;43.77;98114.91;5015864;28;20054;-77
2023/02/09 11:30:41;;;;;;;30.65;21.70;;;;;;;8.25;42.59;98120.00;5015598;28;20054;-77
2023/02/09 11:33:19;;;;;;;30.55;21.38;;;;;;;8.42;42.03;98116.03;5015119;28;20065;-77
2023/02/09 11:35:56;;;;;;;32.00;22.00;;;;;;;8.52;44.54;98108.25;5014276;28;20125;-77
2023/02/09 11:38:35;;;;;;;34.53;22.00;;;;;;;8.58;40.40;98105.13;4996060;28;20054;-77
2023/02/09 11:42:42;;;;;;;30.55;20.88;;;;;;;8.66;43.63;98111.31;4995323;28;20124;-77
2023/02/09 11:43:59;;;;;;;32.67;20.65;;;;;;;8.78;41.02;98111.19;4995083;28;20516;-77
2023/02/09 11:46:31;;;;;;;33.40;21.77;;;;;;;8.80;43.42;98104.09;4994849;28;20050;-76
2023/02/09 11:49:04;;;;;;;32.93;22.57;;;;;;;8.91;40.57;98105.75;5001545;28;20069;-77
2023/02/09 11:51:38;;;;;;;32.72;22.85;;;;;;;8.94;39.16;98105.47;5007662;28;20057;-77